createdAt,value
2022-08-17T00:00:08.852Z,28.1
2022-08-17T00:05:36.158Z,28.1
2022-08-17T00:10:38.149Z,28.1
2022-08-17T00:15:39.901Z,28.1
2022-08-17T00:20:41.651Z,28.1
2022-08-17T00:25:43.397Z,28.1
2022-08-17T00:30:51.441Z,28.1
2022-08-17T00:35:55.205Z,28.1
2022-08-17T00:40:59.114Z,28.1
2022-08-17T00:46:01.230Z,28.1
2022-08-17T00:51:02.938Z,28.1
2022-08-17T00:56:04.676Z,28.1
2022-08-17T01:01:06.454Z,28.1
2022-08-17T01:06:08.212Z,28.1
2022-08-17T01:11:10.286Z,28.1
2022-08-17T01:16:12.073Z,28.1
2022-08-17T01:21:13.798Z,28.1
2022-08-17T01:26:15.533Z,28.1
2022-08-17T01:31:17.291Z,28.1
2022-08-17T01:36:19.038Z,28.1
2022-08-17T01:41:20.787Z,28.1
2022-08-17T01:46:22.537Z,28.1
2022-08-17T01:51:24.262Z,28.1
2022-08-17T01:56:26.006Z,28.1
2022-08-17T02:01:27.762Z,28.1
2022-08-17T02:06:29.547Z,28.1
2022-08-17T02:11:31.316Z,28.1
2022-08-17T02:16:37.246Z,28.1
2022-08-17T02:21:39.837Z,28.1
2022-08-17T02:26:41.554Z,28.1
2022-08-17T02:31:43.286Z,28.1
2022-08-17T02:36:45.238Z,28.1
2022-08-17T02:41:46.979Z,28.1
2022-08-17T02:46:48.852Z,28.1
2022-08-17T02:51:50.570Z,28.1
2022-08-17T02:56:52.567Z,28.1
2022-08-17T03:01:54.451Z,28.1
2022-08-17T03:06:56.316Z,28.1
2022-08-17T03:11:58.737Z,28.1
2022-08-17T03:17:00.510Z,28.1
2022-08-17T03:22:08.799Z,28.1
2022-08-17T03:27:38.343Z,28.1
2022-08-17T03:32:43.677Z,28.1
2022-08-17T03:37:45.440Z,28.1
2022-08-17T03:42:47.158Z,28.1
2022-08-17T03:47:48.927Z,28.1
2022-08-17T03:52:51.709Z,28.1
2022-08-17T03:57:53.716Z,28.1
2022-08-17T04:02:55.457Z,28.1
2022-08-17T04:07:57.205Z,28.1
2022-08-17T04:12:58.954Z,28.1
2022-08-17T04:18:00.723Z,28.1
2022-08-17T04:23:02.473Z,28
2022-08-17T04:28:05.548Z,28.1
2022-08-17T04:33:16.607Z,28.1
2022-08-17T04:38:18.657Z,28.1
2022-08-17T04:43:20.427Z,28
2022-08-17T04:48:22.191Z,28.1
2022-08-17T04:53:23.908Z,28.1
2022-08-17T04:58:25.648Z,28.1
2022-08-17T05:03:27.402Z,28
2022-08-17T05:08:29.146Z,28
2022-08-17T05:13:30.906Z,28
2022-08-17T05:18:32.650Z,28
2022-08-17T05:23:41.616Z,28
2022-08-17T05:28:44.604Z,28
2022-08-17T05:33:48.064Z,28
2022-08-17T05:38:50.129Z,28
2022-08-17T05:43:55.742Z,28
2022-08-17T05:48:57.969Z,28
2022-08-17T05:53:59.715Z,28
2022-08-17T05:59:01.466Z,28
2022-08-17T06:04:03.236Z,28
2022-08-17T06:09:04.997Z,28
2022-08-17T06:14:06.765Z,28
2022-08-17T06:19:08.502Z,28
2022-08-17T06:24:10.258Z,28
2022-08-17T06:29:18.496Z,28
2022-08-17T06:34:20.808Z,28
2022-08-17T06:39:22.561Z,28
2022-08-17T06:44:41.965Z,28
2022-08-17T06:49:55.343Z,28
2022-08-17T06:54:57.214Z,28
2022-08-17T06:59:58.939Z,28
2022-08-17T07:05:00.672Z,28
2022-08-17T07:10:02.414Z,28
2022-08-17T07:15:04.197Z,28
2022-08-17T07:20:05.942Z,28
2022-08-17T07:25:07.705Z,28
2022-08-17T07:30:10.757Z,28
2022-08-17T07:35:12.738Z,28
2022-08-17T07:40:17.284Z,28
2022-08-17T07:45:19.127Z,28
2022-08-17T07:50:25.384Z,28
2022-08-17T07:55:27.607Z,28
2022-08-17T08:00:31.911Z,28
2022-08-17T08:05:48.880Z,28
2022-08-17T08:10:51.545Z,28
2022-08-17T08:15:53.440Z,27.9
2022-08-17T08:20:55.615Z,28
2022-08-17T08:25:57.366Z,28
2022-08-17T08:30:59.078Z,27.9
2022-08-17T08:36:00.782Z,27.9
2022-08-17T08:41:02.508Z,27.9
2022-08-17T08:46:04.235Z,27.9
2022-08-17T08:51:05.967Z,27.9
2022-08-17T08:56:10.337Z,27.9
2022-08-17T09:01:16.877Z,27.9
2022-08-17T09:06:28.659Z,27.9
2022-08-17T09:12:01.632Z,27.9
2022-08-17T09:17:04.975Z,27.9
2022-08-17T09:22:06.679Z,27.9
2022-08-17T09:27:08.356Z,27.9
2022-08-17T09:32:10.084Z,27.9
2022-08-17T09:37:11.786Z,27.9
2022-08-17T09:42:13.496Z,27.9
2022-08-17T09:47:15.191Z,27.9
2022-08-17T09:52:17.791Z,27.9
2022-08-17T09:57:29.594Z,27.9
2022-08-17T10:02:32.085Z,27.9
2022-08-17T10:07:34.007Z,27.9
2022-08-17T10:12:35.727Z,27.9
2022-08-17T10:17:39.912Z,27.9
2022-08-17T10:22:41.618Z,27.9
2022-08-17T10:27:43.637Z,27.9
2022-08-17T10:32:45.424Z,27.9
2022-08-17T10:37:47.206Z,27.9
2022-08-17T10:42:48.992Z,27.9
2022-08-17T10:47:55.335Z,27.9
2022-08-17T10:52:57.322Z,27.9
2022-08-17T10:57:59.045Z,27.9
2022-08-17T11:03:00.723Z,27.9
2022-08-17T11:08:02.416Z,27.9
2022-08-17T11:13:04.347Z,27.9
2022-08-17T11:18:07.405Z,27.9
2022-08-17T11:23:09.077Z,27.9
2022-08-17T11:28:10.765Z,27.9
2022-08-17T11:33:12.451Z,27.9
2022-08-17T11:38:16.179Z,27.9
2022-08-17T11:43:18.330Z,27.9
2022-08-17T11:48:28.755Z,27.9
2022-08-17T11:53:30.737Z,27.9
2022-08-17T11:58:32.446Z,27.9
2022-08-17T12:03:34.208Z,27.9
2022-08-17T12:08:36.024Z,27.9
2022-08-17T12:13:39.316Z,27.9
2022-08-17T12:18:41.749Z,27.9
2022-08-17T12:23:44.232Z,27.9
2022-08-17T12:28:46.112Z,27.9
2022-08-17T12:33:47.819Z,27.9
2022-08-17T12:38:49.531Z,27.9
2022-08-17T12:43:51.241Z,27.9
2022-08-17T12:48:55.030Z,27.9
2022-08-17T12:54:01.128Z,27.9
2022-08-17T12:59:02.847Z,27.9
2022-08-17T13:04:04.544Z,27.9
2022-08-17T13:09:06.221Z,27.9
2022-08-17T13:14:07.924Z,27.9
2022-08-17T13:19:09.628Z,27.9
2022-08-17T13:24:11.313Z,27.9
2022-08-17T13:29:13.019Z,27.9
2022-08-17T13:34:14.709Z,27.9
2022-08-17T13:39:17.225Z,27.9
2022-08-17T13:44:18.931Z,27.9
2022-08-17T13:49:20.640Z,27.9
2022-08-17T13:54:22.347Z,27.9
2022-08-17T13:59:36.451Z,27.9
2022-08-17T14:04:56.084Z,27.9
2022-08-17T14:09:57.779Z,27.9
2022-08-17T14:14:59.477Z,27.9
2022-08-17T14:20:01.244Z,27.9
2022-08-17T14:25:03.085Z,27.9
2022-08-17T14:30:04.775Z,27.9
2022-08-17T14:35:06.507Z,27.9
2022-08-17T14:40:08.268Z,27.9
2022-08-17T14:45:26.989Z,27.9
2022-08-17T14:50:35.659Z,27.9
2022-08-17T14:55:37.680Z,27.9
2022-08-17T15:00:39.357Z,27.9
2022-08-17T15:05:41.092Z,27.9
2022-08-17T15:10:42.806Z,27.9
2022-08-17T15:15:44.523Z,27.9
2022-08-17T15:20:46.202Z,27.9
2022-08-17T15:25:47.927Z,27.9
2022-08-17T15:30:49.642Z,27.9
2022-08-17T15:35:51.365Z,27.9
2022-08-17T15:40:53.072Z,27.9
2022-08-17T15:45:54.890Z,27.9
2022-08-17T15:51:01.509Z,27.9
2022-08-17T15:56:03.224Z,27.9
2022-08-17T16:01:14.405Z,27.9
2022-08-17T16:06:20.552Z,27.9
2022-08-17T16:11:22.224Z,27.9
2022-08-17T16:16:23.950Z,27.9
2022-08-17T16:21:25.654Z,27.8
2022-08-17T16:26:27.363Z,27.9
2022-08-17T16:31:29.078Z,27.9
2022-08-17T16:36:30.768Z,27.8
2022-08-17T16:41:32.470Z,27.9
2022-08-17T16:46:34.195Z,27.8
2022-08-17T16:51:35.898Z,27.8
2022-08-17T16:56:37.591Z,27.9
2022-08-17T17:01:39.308Z,27.9
2022-08-17T17:06:41.015Z,27.8
2022-08-17T17:11:42.716Z,27.8
2022-08-17T17:16:44.419Z,27.8
2022-08-17T17:21:46.657Z,27.8
2022-08-17T17:26:48.359Z,27.8
2022-08-17T17:31:50.066Z,27.8
2022-08-17T17:36:52.107Z,27.8
2022-08-17T17:41:53.819Z,27.8
2022-08-17T17:46:55.497Z,27.8
2022-08-17T17:52:07.554Z,27.8
2022-08-17T17:57:12.605Z,27.8
2022-08-17T18:02:14.425Z,27.8
2022-08-17T18:07:16.267Z,27.8
2022-08-17T18:12:17.975Z,27.8
2022-08-17T18:17:19.652Z,27.8
2022-08-17T18:22:21.349Z,27.8
2022-08-17T18:27:23.074Z,27.8
2022-08-17T18:32:24.793Z,27.8
2022-08-17T18:37:26.491Z,27.8
2022-08-17T18:42:28.163Z,27.8
2022-08-17T18:47:29.871Z,27.8
2022-08-17T18:52:31.596Z,27.8
2022-08-17T18:57:33.323Z,27.8
2022-08-17T19:02:44.985Z,27.8
2022-08-17T19:07:47.095Z,27.8
2022-08-17T19:12:48.857Z,27.8
2022-08-17T19:17:50.763Z,27.8
2022-08-17T19:22:52.631Z,27.8
2022-08-17T19:27:57.559Z,27.8
2022-08-17T19:32:59.758Z,27.8
2022-08-17T19:38:01.493Z,27.8
2022-08-17T19:43:03.204Z,27.8
2022-08-17T19:48:05.198Z,27.8
2022-08-17T19:53:07.068Z,27.8
2022-08-17T19:58:08.795Z,27.8
2022-08-17T20:03:16.098Z,27.8
2022-08-17T20:08:18.089Z,27.8
2022-08-17T20:13:19.800Z,27.8
2022-08-17T20:18:34.882Z,27.8
2022-08-17T20:23:36.642Z,27.8
2022-08-17T20:28:38.346Z,27.8
2022-08-17T20:33:40.035Z,27.8
2022-08-17T20:38:41.711Z,27.8
2022-08-17T20:43:43.401Z,27.8
2022-08-17T20:48:45.461Z,27.8
2022-08-17T20:53:47.407Z,27.8
2022-08-17T20:58:49.091Z,27.8
2022-08-17T21:03:51.763Z,27.8
2022-08-17T21:08:53.756Z,27.8
2022-08-17T21:13:55.748Z,27.8
2022-08-17T21:18:57.455Z,27.8
2022-08-17T21:23:59.175Z,27.8
2022-08-17T21:29:01.696Z,27.8
2022-08-17T21:34:31.879Z,27.8
2022-08-17T21:39:33.739Z,27.8
2022-08-17T21:44:35.560Z,27.8
2022-08-17T21:49:37.914Z,27.8
2022-08-17T21:54:39.765Z,27.8
2022-08-17T21:59:41.475Z,27.8
2022-08-17T22:04:43.416Z,27.8
2022-08-17T22:09:45.106Z,27.8
2022-08-17T22:14:51.899Z,27.8
2022-08-17T22:19:55.055Z,27.8
2022-08-17T22:24:57.494Z,28.5
2022-08-17T22:29:59.491Z,31.2
2022-08-17T22:34:59.921Z,33.6
2022-08-17T22:40:00.300Z,35.5
2022-08-17T22:45:00.711Z,37.2
2022-08-17T22:50:01.068Z,38.6
2022-08-17T22:55:01.487Z,39.9
2022-08-17T23:00:09.599Z,41.1
2022-08-17T23:05:11.183Z,42.1
2022-08-17T23:10:11.668Z,42.7
2022-08-17T23:15:12.170Z,43.4
2022-08-17T23:20:12.694Z,43.5
2022-08-17T23:25:13.221Z,43.2
2022-08-17T23:30:13.714Z,43.1
2022-08-17T23:35:14.219Z,42.9
2022-08-17T23:40:14.727Z,41.9
2022-08-17T23:45:15.175Z,41.7
2022-08-17T23:50:15.577Z,41.6
2022-08-17T23:55:17.350Z,41.6
